createdAt,value
2019-02-25T00:03:57.590Z,102859.88
2019-02-25T00:06:24.808Z,102859.55
2019-02-25T00:09:04.278Z,102859.59
2019-02-25T00:14:51.485Z,102864.50
2019-02-25T00:17:18.680Z,102854.05
2019-02-25T00:25:27.047Z,102850.23
2019-02-25T00:27:54.284Z,102850.70
2019-02-25T00:30:23.248Z,102848.13
2019-02-25T00:32:50.395Z,102848.20
2019-02-25T00:35:17.693Z,102848.21
2019-02-25T00:37:44.897Z,102852.98
2019-02-25T00:40:52.923Z,102853.48
2019-02-25T00:43:20.432Z,102859.52
2019-02-25T00:46:28.455Z,102859.13
2019-02-25T00:48:55.627Z,102861.73
2019-02-25T00:51:22.827Z,102867.84
2019-02-25T00:53:50.484Z,102867.00
2019-02-25T00:56:17.734Z,102865.27
2019-02-25T01:01:45.794Z,102873.13
2019-02-25T01:04:12.968Z,102870.53
2019-02-25T01:06:40.161Z,102873.97
2019-02-25T01:14:45.084Z,102873.95
2019-02-25T01:17:12.234Z,102877.87
2019-02-25T01:19:39.416Z,102876.15
2019-02-25T01:22:06.624Z,102870.50
2019-02-25T01:24:34.147Z,102873.06
2019-02-25T01:27:01.373Z,102874.37
2019-02-25T01:29:28.605Z,102872.16
2019-02-25T01:31:55.755Z,102876.94
2019-02-25T01:34:22.940Z,102865.66
2019-02-25T01:36:50.141Z,102869.59
2019-02-25T01:39:37.062Z,102873.05
2019-02-25T01:42:04.239Z,102877.79
2019-02-25T01:44:31.432Z,102873.41
2019-02-25T01:46:58.576Z,102878.11
2019-02-25T01:49:25.781Z,102867.25
2019-02-25T01:51:52.940Z,102871.16
2019-02-25T01:54:20.131Z,102877.17
2019-02-25T01:57:06.807Z,102876.70
2019-02-25T01:59:53.689Z,102873.65
2019-02-25T02:02:20.926Z,102867.95
2019-02-25T02:07:47.521Z,102868.87
2019-02-25T02:13:27.893Z,102865.00
2019-02-25T02:15:55.308Z,102866.72
2019-02-25T02:18:22.470Z,102861.06
2019-02-25T02:20:49.552Z,102863.20
2019-02-25T02:23:16.742Z,102862.74
2019-02-25T02:25:43.940Z,102867.11
2019-02-25T02:28:11.152Z,102871.05
2019-02-25T02:33:46.837Z,102883.17
2019-02-25T02:39:22.224Z,102881.03
2019-02-25T02:42:28.306Z,102872.38
2019-02-25T02:48:21.971Z,102871.13
2019-02-25T02:53:57.270Z,102875.58
2019-02-25T03:00:04.520Z,102868.72
2019-02-25T03:06:05.225Z,102871.85
2019-02-25T03:08:32.411Z,102876.68
2019-02-25T03:14:00.965Z,102870.55
2019-02-25T03:16:28.163Z,102871.84
2019-02-25T03:18:55.329Z,102867.55
2019-02-25T03:24:56.359Z,102855.09
2019-02-25T03:27:36.129Z,102847.31
2019-02-25T03:30:45.108Z,102853.37
2019-02-25T03:36:32.539Z,102852.10
2019-02-25T03:39:19.206Z,102852.51
2019-02-25T03:41:46.414Z,102856.80
2019-02-25T03:44:13.612Z,102858.08
2019-02-25T03:46:40.800Z,102859.38
2019-02-25T03:49:08.015Z,102855.89
2019-02-25T03:51:35.205Z,102859.65
2019-02-25T03:57:03.598Z,102850.77
2019-02-25T03:59:30.867Z,102856.89
2019-02-25T04:05:00.503Z,102849.67
2019-02-25T04:07:34.794Z,102848.47
2019-02-25T04:10:02.049Z,102843.27
2019-02-25T04:13:11.817Z,102846.73
2019-02-25T04:18:19.532Z,102847.22
2019-02-25T04:24:20.554Z,102856.76
2019-02-25T04:26:59.735Z,102855.89
2019-02-25T04:29:26.973Z,102853.29
2019-02-25T04:31:54.153Z,102855.91
2019-02-25T04:34:21.683Z,102852.91
2019-02-25T04:45:53.181Z,102857.23
2019-02-25T04:54:33.687Z,102867.36
2019-02-25T04:57:00.929Z,102861.34
2019-02-25T05:02:08.491Z,102850.19
2019-02-25T05:07:15.992Z,102853.29
2019-02-25T05:09:43.258Z,102854.61
2019-02-25T05:12:10.477Z,102858.97
2019-02-25T05:14:37.674Z,102862.08
2019-02-25T05:17:04.856Z,102861.70
2019-02-25T05:19:51.620Z,102862.58
2019-02-25T05:22:19.131Z,102860.85
2019-02-25T05:25:05.834Z,102861.30
2019-02-25T05:31:25.489Z,102864.78
2019-02-25T05:33:52.884Z,102862.62
2019-02-25T05:37:00.962Z,102857.86
2019-02-25T05:39:28.145Z,102868.25
2019-02-25T05:41:55.315Z,102863.06
2019-02-25T05:44:34.927Z,102868.25
2019-02-25T05:47:02.084Z,102869.12
2019-02-25T05:49:29.583Z,102857.86
2019-02-25T05:51:57.199Z,102866.95
2019-02-25T05:54:24.316Z,102876.05
2019-02-25T05:56:51.480Z,102879.91
2019-02-25T05:59:19.080Z,102879.07
2019-02-25T06:08:07.459Z,102874.30
2019-02-25T06:10:34.645Z,102883.81
2019-02-25T06:13:01.850Z,102874.71
2019-02-25T06:15:29.080Z,102873.01
2019-02-25T06:17:56.232Z,102872.11
2019-02-25T06:20:23.433Z,102866.48
2019-02-25T06:22:50.664Z,102871.67
2019-02-25T06:25:17.925Z,102871.67
2019-02-25T06:28:05.411Z,102873.41
2019-02-25T06:30:44.974Z,102873.43
2019-02-25T06:33:53.064Z,102878.62
2019-02-25T06:36:39.991Z,102880.33
2019-02-25T06:39:07.642Z,102881.20
2019-02-25T06:41:36.676Z,102885.52
2019-02-25T06:44:03.872Z,102890.26
2019-02-25T06:46:31.120Z,102881.56
2019-02-25T06:48:58.214Z,102890.19
2019-02-25T06:51:37.748Z,102880.59
2019-02-25T06:54:05.248Z,102886.83
2019-02-25T06:57:13.306Z,102881.48
2019-02-25T06:59:40.472Z,102872.08
2019-02-25T07:02:48.542Z,102880.27
2019-02-25T07:09:10.142Z,102881.91
2019-02-25T07:11:57.338Z,102890.45
2019-02-25T07:14:30.328Z,102869.69
2019-02-25T07:17:17.061Z,102880.60
2019-02-25T07:20:03.844Z,102880.64
2019-02-25T07:26:10.512Z,102884.11
2019-02-25T07:28:57.665Z,102879.89
2019-02-25T07:31:44.471Z,102883.61
2019-02-25T07:34:50.716Z,102877.58
2019-02-25T07:37:37.484Z,102874.44
2019-02-25T07:43:47.839Z,102868.84
2019-02-25T07:46:27.234Z,102872.53
2019-02-25T07:49:26.352Z,102877.58
2019-02-25T07:52:13.070Z,102877.11
2019-02-25T07:54:49.163Z,102877.33
2019-02-25T08:00:56.293Z,102898.13
2019-02-25T08:03:43.043Z,102899.86
2019-02-25T08:06:30.220Z,102904.05
2019-02-25T08:09:17.213Z,102898.34
2019-02-25T08:12:04.058Z,102893.90
2019-02-25T08:15:10.308Z,102886.80
2019-02-25T08:17:57.260Z,102892.73
2019-02-25T08:20:44.041Z,102904.63
2019-02-25T08:23:52.097Z,102900.71
2019-02-25T08:29:51.135Z,102899.73
2019-02-25T08:32:37.980Z,102901.37
2019-02-25T08:35:46.311Z,102897.34
2019-02-25T08:41:40.773Z,102896.98
2019-02-25T08:52:50.835Z,102902.47
2019-02-25T08:55:18.060Z,102901.28
2019-02-25T09:00:46.392Z,102903.06
2019-02-25T09:03:13.475Z,102903.55
2019-02-25T09:11:42.634Z,102889.34
2019-02-25T09:14:09.827Z,102884.77
2019-02-25T09:22:38.948Z,102872.15
2019-02-25T09:25:47.226Z,102877.98
2019-02-25T09:28:46.333Z,102881.72
2019-02-25T09:34:47.494Z,102886.29
2019-02-25T09:37:14.697Z,102891.52
2019-02-25T09:39:41.873Z,102888.04
2019-02-25T09:42:49.918Z,102892.88
2019-02-25T09:45:17.099Z,102884.37
2019-02-25T09:54:19.632Z,102880.63
2019-02-25T09:57:06.686Z,102874.83
2019-02-25T09:59:33.912Z,102882.09
2019-02-25T10:02:01.082Z,102876.34
2019-02-25T10:07:29.927Z,102865.08
2019-02-25T10:09:57.103Z,102864.25
2019-02-25T10:12:24.303Z,102865.68
2019-02-25T10:14:51.547Z,102858.95
2019-02-25T10:17:23.620Z,102859.39
2019-02-25T10:23:07.269Z,102858.68
2019-02-25T10:25:53.928Z,102856.06
2019-02-25T10:28:21.159Z,102852.08
2019-02-25T10:30:52.883Z,102844.88
2019-02-25T10:34:18.409Z,102844.81
2019-02-25T10:36:46.081Z,102843.66
2019-02-25T10:39:34.446Z,102847.28
2019-02-25T10:42:01.787Z,102851.55
2019-02-25T10:45:31.327Z,102847.39
2019-02-25T10:47:58.950Z,102860.51
2019-02-25T10:50:55.722Z,102858.35
2019-02-25T10:53:25.990Z,102852.78
2019-02-25T10:56:32.148Z,102858.30
2019-02-25T11:02:20.271Z,102859.77
2019-02-25T11:04:49.267Z,102860.19
2019-02-25T11:07:26.267Z,102850.81
2019-02-25T11:13:08.539Z,102857.52
2019-02-25T11:18:44.347Z,102855.67
2019-02-25T11:21:44.255Z,102854.11
2019-02-25T11:24:11.553Z,102855.20
2019-02-25T11:26:59.377Z,102847.91
2019-02-25T11:33:16.393Z,102848.85
2019-02-25T11:45:36.447Z,102828.08
2019-02-25T11:51:37.544Z,102829.84
2019-02-25T11:54:04.732Z,102822.03
2019-02-25T11:56:51.414Z,102813.37
2019-02-25T11:59:18.594Z,102807.27
2019-02-25T12:01:45.757Z,102804.36
2019-02-25T12:04:12.970Z,102806.13
2019-02-25T12:06:40.131Z,102803.70
2019-02-25T12:12:08.160Z,102803.63
2019-02-25T12:14:35.325Z,102807.17
2019-02-25T12:17:02.509Z,102802.78
2019-02-25T12:19:49.293Z,102802.09
2019-02-25T12:22:17.009Z,102796.70
2019-02-25T12:24:44.165Z,102800.67
2019-02-25T12:27:52.229Z,102791.24
2019-02-25T12:32:58.715Z,102782.08
2019-02-25T12:35:25.922Z,102776.05
2019-02-25T12:40:54.553Z,102774.91
2019-02-25T12:43:53.686Z,102780.31
2019-02-25T12:49:21.645Z,102774.80
2019-02-25T12:52:00.809Z,102769.41
2019-02-25T12:54:47.771Z,102773.84
2019-02-25T12:57:14.999Z,102770.08
2019-02-25T13:00:14.078Z,102765.74
2019-02-25T13:06:03.898Z,102753.98
2019-02-25T13:08:31.120Z,102753.98
2019-02-25T13:10:58.638Z,102746.89
2019-02-25T13:13:25.882Z,102746.23
2019-02-25T13:18:44.757Z,102739.41
2019-02-25T13:24:12.366Z,102723.33
2019-02-25T13:26:39.577Z,102721.34
2019-02-25T13:29:06.806Z,102714.58
2019-02-25T13:32:14.861Z,102707.00
2019-02-25T13:34:42.179Z,102707.20
2019-02-25T13:37:12.079Z,102704.34
2019-02-25T13:39:39.381Z,102692.80
2019-02-25T13:42:06.960Z,102681.11
2019-02-25T13:44:34.117Z,102678.95
2019-02-25T13:47:01.659Z,102667.00
2019-02-25T13:49:29.202Z,102662.45
2019-02-25T13:51:56.368Z,102654.02
2019-02-25T13:54:30.214Z,102643.41
2019-02-25T13:56:57.534Z,102640.08
2019-02-25T13:59:25.048Z,102634.00
2019-02-25T14:01:52.266Z,102630.22
2019-02-25T14:04:19.459Z,102620.64
2019-02-25T14:06:46.671Z,102632.30
2019-02-25T14:09:14.195Z,102625.78
2019-02-25T14:14:54.404Z,102619.69
2019-02-25T14:17:21.624Z,102619.03
2019-02-25T14:19:48.812Z,102614.13
2019-02-25T14:28:11.251Z,102613.17
2019-02-25T14:30:51.650Z,102604.62
2019-02-25T14:36:20.135Z,102592.95
2019-02-25T14:38:47.339Z,102586.98
2019-02-25T14:41:16.165Z,102578.15
2019-02-25T14:44:02.174Z,102581.94
2019-02-25T14:49:08.265Z,102571.48
2019-02-25T14:51:42.772Z,102568.36
2019-02-25T14:57:11.801Z,102577.67
2019-02-25T14:59:38.945Z,102573.19
2019-02-25T15:05:07.956Z,102575.55
2019-02-25T15:07:36.938Z,102575.37
2019-02-25T15:13:08.163Z,102577.83
2019-02-25T15:15:55.032Z,102579.72
2019-02-25T15:18:36.048Z,102576.48
2019-02-25T15:25:08.541Z,102571.27
2019-02-25T15:27:35.683Z,102579.69
2019-02-25T15:30:43.767Z,102576.58
2019-02-25T15:33:10.925Z,102568.20
2019-02-25T15:35:57.524Z,102561.69
2019-02-25T15:45:06.243Z,102561.81
2019-02-25T15:47:34.133Z,102560.05
2019-02-25T15:50:04.422Z,102566.12
2019-02-25T15:52:51.033Z,102561.94
2019-02-25T15:55:29.336Z,102559.20
2019-02-25T15:58:37.396Z,102556.10
2019-02-25T16:04:06.934Z,102552.97
2019-02-25T16:09:48.823Z,102558.29
2019-02-25T16:12:17.826Z,102556.13
2019-02-25T16:15:04.532Z,102557.91
2019-02-25T16:17:31.800Z,102556.25
2019-02-25T16:29:30.796Z,102548.66
2019-02-25T16:37:53.047Z,102553.84
2019-02-25T16:43:40.023Z,102559.59
2019-02-25T16:46:08.640Z,102564.36
2019-02-25T16:48:48.267Z,102565.18
2019-02-25T16:51:25.871Z,102563.89
2019-02-25T16:54:06.894Z,102566.08
2019-02-25T16:56:43.244Z,102567.77
2019-02-25T16:59:53.337Z,102565.20
2019-02-25T17:05:19.691Z,102559.73
2019-02-25T17:07:48.890Z,102562.95
2019-02-25T17:13:01.564Z,102569.28
2019-02-25T17:21:33.575Z,102563.83
2019-02-25T17:24:41.632Z,102567.16
2019-02-25T17:30:29.872Z,102575.13
2019-02-25T17:39:00.368Z,102593.18
2019-02-25T17:41:27.590Z,102593.89
2019-02-25T17:43:55.408Z,102597.00
2019-02-25T17:46:34.959Z,102588.33
2019-02-25T17:49:10.056Z,102589.55
2019-02-25T17:51:43.904Z,102589.96
2019-02-25T17:54:12.513Z,102589.64
2019-02-25T17:56:51.432Z,102592.66
2019-02-25T18:02:45.298Z,102599.59
2019-02-25T18:05:14.176Z,102600.73
2019-02-25T18:07:48.656Z,102602.33
2019-02-25T18:13:43.069Z,102593.08
2019-02-25T18:16:11.833Z,102591.00
2019-02-25T18:18:45.813Z,102592.91
2019-02-25T18:21:20.308Z,102597.71
2019-02-25T18:23:49.355Z,102603.36
2019-02-25T18:26:36.781Z,102599.28
2019-02-25T18:29:46.475Z,102611.20
2019-02-25T18:35:53.731Z,102609.59
2019-02-25T18:41:00.065Z,102604.43
2019-02-25T18:49:43.299Z,102609.84
2019-02-25T18:52:10.460Z,102607.27
2019-02-25T18:54:50.241Z,102611.16
2019-02-25T18:57:18.844Z,102609.89
2019-02-25T19:00:37.040Z,102607.91
2019-02-25T19:15:32.125Z,102611.25
2019-02-25T19:20:38.552Z,102609.42
2019-02-25T19:23:16.543Z,102604.00
2019-02-25T19:28:32.293Z,102601.25
2019-02-25T19:30:59.483Z,102605.16
2019-02-25T19:33:26.701Z,102606.37
2019-02-25T19:35:54.376Z,102602.91
2019-02-25T19:41:46.982Z,102602.58
2019-02-25T19:44:14.859Z,102603.45
2019-02-25T19:50:51.098Z,102607.66
2019-02-25T19:53:42.949Z,102611.14
2019-02-25T20:03:05.576Z,102622.05
2019-02-25T20:05:38.690Z,102611.75
2019-02-25T20:08:14.784Z,102611.36
2019-02-25T20:10:43.796Z,102608.22
2019-02-25T20:13:11.004Z,102602.41
2019-02-25T20:15:42.421Z,102600.17
2019-02-25T20:18:31.050Z,102608.76
2019-02-25T20:24:07.762Z,102613.86
2019-02-25T20:26:57.743Z,102609.48
2019-02-25T20:32:36.447Z,102612.16
2019-02-25T20:35:26.750Z,102609.69
2019-02-25T20:38:05.177Z,102609.49
2019-02-25T20:40:42.756Z,102607.47
2019-02-25T20:43:10.034Z,102606.48
2019-02-25T20:46:01.086Z,102614.22
2019-02-25T20:51:38.963Z,102611.52
2019-02-25T20:54:47.978Z,102603.78
2019-02-25T21:00:24.334Z,102615.42
2019-02-25T21:03:32.797Z,102609.87
2019-02-25T21:06:01.066Z,102606.48
2019-02-25T21:09:09.414Z,102605.59
2019-02-25T21:11:44.786Z,102605.12
2019-02-25T21:14:44.967Z,102596.84
2019-02-25T21:19:52.667Z,102593.03
2019-02-25T21:22:23.176Z,102588.61
2019-02-25T21:28:44.238Z,102589.81
2019-02-25T21:34:50.099Z,102579.08
2019-02-25T21:37:21.338Z,102574.50
2019-02-25T21:39:56.021Z,102574.59
2019-02-25T21:42:30.867Z,102576.91
2019-02-25T21:45:00.125Z,102578.30
2019-02-25T21:48:30.263Z,102578.36
2019-02-25T21:54:06.768Z,102569.98
2019-02-25T21:56:54.833Z,102575.83
2019-02-25T21:59:22.078Z,102576.73
2019-02-25T22:02:30.065Z,102574.14
2019-02-25T22:05:10.186Z,102579.02
2019-02-25T22:07:38.462Z,102576.62
2019-02-25T22:10:47.464Z,102571.91
2019-02-25T22:13:16.385Z,102572.03
2019-02-25T22:16:13.292Z,102572.11
2019-02-25T22:24:38.205Z,102558.45
2019-02-25T22:27:52.118Z,102568.15
2019-02-25T22:30:19.674Z,102573.05
2019-02-25T22:32:48.643Z,102577.11
2019-02-25T22:35:15.826Z,102576.75
2019-02-25T22:37:46.833Z,102572.83
2019-02-25T22:43:52.341Z,102571.23
2019-02-25T22:46:19.522Z,102573.08
2019-02-25T22:48:47.286Z,102570.93
2019-02-25T22:51:37.337Z,102565.21
2019-02-25T22:57:34.928Z,102573.84
2019-02-25T23:00:14.588Z,102566.16
2019-02-25T23:02:54.696Z,102573.37
2019-02-25T23:05:23.410Z,102578.25
2019-02-25T23:08:44.272Z,102580.53
2019-02-25T23:11:19.807Z,102578.46
2019-02-25T23:14:13.685Z,102582.45
2019-02-25T23:26:12.628Z,102589.13
2019-02-25T23:29:41.123Z,102588.61
2019-02-25T23:32:08.363Z,102584.98
2019-02-25T23:34:38.343Z,102582.66
2019-02-25T23:37:14.759Z,102591.77
2019-02-25T23:39:49.795Z,102596.53
2019-02-25T23:42:57.852Z,102590.47
2019-02-25T23:48:46.574Z,102589.91
2019-02-25T23:51:21.705Z,102594.82
2019-02-25T23:53:57.643Z,102595.73
2019-02-25T23:56:34.439Z,102595.73
2019-02-25T23:59:01.698Z,102590.70
